Time;durP1;ratioP1;P1;durP2;ratioP2;P2;SDS_P1;SDS_P2;PMS_P1;PMS_P2;Temp;Humidity;BMP_temperature;BMP_pressure;BME280_temperature;BME280_humidity;BME280_pressure;Samples;Min_cycle;Max_cycle;Signal;HPM_P1;HPM_P2
2022/01/14 00:01:51;;;;;;;35.33;16.88;;;;;;;0.18;100.00;102643.84;5077074;28;20048;-50
2022/01/14 00:04:20;;;;;;;38.15;17.45;;;;;;;0.18;100.00;102638.63;5075904;28;20056;-48
2022/01/14 00:06:49;;;;;;;34.03;16.67;;;;;;;0.16;100.00;102635.13;5076431;28;20427;-51
2022/01/14 00:09:17;;;;;;;34.58;17.38;;;;;;;0.10;100.00;102632.41;5075888;28;20056;-50
2022/01/14 00:11:49;;;;;;;33.50;16.52;;;;;;;0.06;100.00;102621.03;5076043;28;20063;-51
2022/01/14 00:14:35;;;;;;;;;;;;;;;0.03;100.00;102614.91;5076991;28;20056;-51
2022/01/14 00:17:06;;;;;;;25.05;14.35;;;;;;;-0.03;100.00;102611.34;5076823;28;19927;-51
2022/01/14 00:19:35;;;;;;;34.03;17.07;;;;;;;-0.05;100.00;102610.44;5076319;28;20070;-51
2022/01/14 00:22:08;;;;;;;33.63;16.02;;;;;;;0.00;100.00;102600.09;5075755;28;20059;-50
2022/01/14 00:33:00;;;;;;;41.05;19.35;;;;;;;0.01;100.00;102586.16;5054490;28;20053;-50
2022/01/14 00:35:29;;;;;;;39.72;20.20;;;;;;;-0.08;100.00;102589.53;5075175;28;20060;-51
2022/01/14 00:37:58;;;;;;;43.17;18.73;;;;;;;-0.15;100.00;102582.47;5075515;28;20052;-51
2022/01/14 00:40:26;;;;;;;43.83;20.45;;;;;;;-0.15;100.00;102585.06;5075456;28;20052;-50
2022/01/14 00:42:54;;;;;;;45.55;21.58;;;;;;;-0.15;100.00;102585.06;5076520;28;20052;-51
2022/01/14 00:45:23;;;;;;;48.85;24.02;;;;;;;-0.08;100.00;102584.31;5076097;28;20054;-51
2022/01/14 00:47:51;;;;;;;47.60;21.40;;;;;;;-0.18;100.00;102577.19;5076410;28;20400;-50
2022/01/14 00:50:21;;;;;;;43.42;20.23;;;;;;;-0.29;100.00;102574.41;5075529;28;20067;-48
2022/01/14 00:52:50;;;;;;;40.25;19.45;;;;;;;-0.33;100.00;102574.34;5076110;28;20064;-51
2022/01/14 00:55:26;;;;;;;44.63;20.20;;;;;;;-0.44;100.00;102564.63;5074070;28;20512;-50
2022/01/14 01:00:40;;;;;;;32.65;17.10;;;;;;;-0.53;100.00;102555.78;5075475;28;20060;-51
2022/01/14 01:03:09;;;;;;;38.00;18.00;;;;;;;-0.57;100.00;102560.94;5074990;28;20091;-50
2022/01/14 01:05:38;;;;;;;38.75;18.25;;;;;;;-0.56;100.00;102572.22;5076141;28;20104;-50
2022/01/14 01:08:12;;;;;;;37.00;18.60;;;;;;;-0.59;100.00;102566.94;5075343;28;20052;-51
2022/01/14 01:10:47;;;;;;;42.53;20.85;;;;;;;-0.61;100.00;102563.44;5075081;28;20483;-50
2022/01/14 01:13:21;;;;;;;44.13;17.70;;;;;;;-0.61;100.00;102573.88;5075333;28;20159;-49
2022/01/14 01:15:50;;;;;;;38.22;19.67;;;;;;;-0.66;100.00;102559.88;5075595;28;20068;-51
2022/01/14 01:18:19;;;;;;;39.78;19.98;;;;;;;-0.73;100.00;102558.91;5074702;28;20171;-51
2022/01/14 01:20:49;;;;;;;39.05;19.20;;;;;;;-0.77;100.00;102562.31;5074964;28;20058;-50
2022/01/14 01:23:17;;;;;;;44.13;19.88;;;;;;;-0.81;100.00;102556.19;5074938;28;20053;-49
2022/01/14 01:25:49;;;;;;;42.67;20.08;;;;;;;-0.88;100.00;102558.63;5074303;28;20056;-51
2022/01/14 01:28:18;;;;;;;45.30;19.80;;;;;;;-0.93;100.00;102561.16;5074333;28;20052;-50
2022/01/14 01:30:51;;;;;;;44.90;20.05;;;;;;;-1.02;100.00;102566.19;5074714;28;20056;-50
2022/01/14 01:33:20;;;;;;;38.05;19.90;;;;;;;-1.09;100.00;102556.50;5074244;28;20106;-49
2022/01/14 01:35:50;;;;;;;37.42;19.20;;;;;;;-1.13;100.00;102553.84;5075061;28;20056;-50
2022/01/14 01:38:18;;;;;;;42.53;19.98;;;;;;;-1.13;100.00;102552.97;5075315;28;20057;-48
2022/01/14 01:40:48;;;;;;;38.97;18.27;;;;;;;-1.11;100.00;102553.84;5074384;28;20056;-51
2022/01/14 01:43:17;;;;;;;36.60;17.52;;;;;;;-1.15;100.00;102545.09;5074348;28;20052;-50
2022/01/14 01:45:47;;;;;;;36.20;18.08;;;;;;;-1.18;100.00;102550.28;5074075;28;20052;-49
2022/01/14 01:48:16;;;;;;;50.67;20.48;;;;;;;-1.18;100.00;102549.38;5074077;28;20060;-49
2022/01/14 01:50:44;;;;;;;46.85;21.67;;;;;;;-1.17;100.00;102540.75;5074555;28;20060;-51
2022/01/14 01:53:14;;;;;;;45.15;21.33;;;;;;;-1.17;100.00;102541.59;5074240;28;20065;-50
2022/01/14 01:55:42;;;;;;;43.70;21.20;;;;;;;-1.13;100.00;102535.63;5074835;28;20405;-51
2022/01/14 01:58:11;;;;;;;39.63;19.08;;;;;;;-1.13;100.00;102534.72;5074415;28;20064;-49
2022/01/14 02:00:39;;;;;;;38.20;19.42;;;;;;;-1.14;100.00;102538.19;5074143;28;20063;-50
2022/01/14 02:03:08;;;;;;;38.08;19.92;;;;;;;-1.23;100.00;102541.47;5074132;28;20056;-51
2022/01/14 02:05:37;;;;;;;41.70;20.50;;;;;;;-1.25;100.00;102540.56;5073655;28;20068;-50
2022/01/14 02:08:05;;;;;;;39.78;20.55;;;;;;;-1.26;100.00;102536.25;5074506;28;20063;-51
2022/01/14 02:10:36;;;;;;;45.50;20.88;;;;;;;-1.26;100.00;102536.25;5074543;28;20484;-51
2022/01/14 02:13:05;;;;;;;40.25;18.98;;;;;;;-1.25;100.00;102537.09;5074958;28;20052;-51
2022/01/14 02:18:32;;;;;;;44.95;19.58;;;;;;;-1.13;100.00;102543.44;5070722;28;20072;-50
2022/01/14 02:23:54;;;;;;;50.47;24.90;;;;;;;-0.98;100.00;102552.38;5073701;28;20048;-50
2022/01/14 02:26:23;;;;;;;48.80;23.88;;;;;;;-1.04;100.00;102552.25;5075079;28;20063;-51
2022/01/14 02:28:52;;;;;;;47.55;23.65;;;;;;;-1.01;100.00;102549.69;5073858;28;20060;-49
2022/01/14 02:31:20;;;;;;;52.75;23.67;;;;;;;-1.02;100.00;102559.25;5073851;28;20063;-48
2022/01/14 02:33:48;;;;;;;45.10;21.67;;;;;;;-1.05;100.00;102546.16;5073584;28;20496;-50
2022/01/14 02:36:18;;;;;;;46.30;22.58;;;;;;;-1.06;100.00;102543.53;5074104;28;20059;-50
2022/01/14 02:38:46;;;;;;;51.75;22.23;;;;;;;-1.08;100.00;102545.25;5074113;28;20083;-51
2022/01/14 02:41:15;;;;;;;47.30;21.10;;;;;;;-1.14;100.00;102539.06;5073733;28;20056;-51
2022/01/14 02:43:43;;;;;;;47.65;21.05;;;;;;;-1.13;100.00;102532.13;5074911;28;20399;-50
2022/01/14 02:46:14;;;;;;;52.38;19.95;;;;;;;-0.97;100.00;102533.28;5073993;28;20067;-51
2022/01/14 02:48:42;;;;;;;51.70;20.20;;;;;;;-0.67;100.00;102522.53;5073427;28;20061;-50
2022/01/14 02:51:13;;;;;;;50.35;20.95;;;;;;;-0.54;100.00;102520.09;5074852;28;20053;-51
2022/01/14 02:53:55;;;;;;;46.45;19.17;;;;;;;-0.63;100.00;102523.44;5073401;28;20060;-50
2022/01/14 02:56:29;;;;;;;50.50;18.60;;;;;;;-0.67;100.00;102511.19;5073335;28;20053;-51
2022/01/14 02:58:58;;;;;;;45.75;21.08;;;;;;;-0.71;100.00;102520.69;5073373;28;20063;-51
2022/01/14 03:01:28;;;;;;;51.28;20.63;;;;;;;-0.72;100.00;102512.84;5074533;28;20060;-51
2022/01/14 03:03:57;;;;;;;37.78;17.52;;;;;;;-0.79;100.00;102507.56;5073312;28;20432;-51
2022/01/14 03:06:26;;;;;;;47.90;19.38;;;;;;;-0.80;100.00;102510.13;5073802;28;20067;-51
2022/01/14 03:08:57;;;;;;;45.55;18.23;;;;;;;-0.80;100.00;102516.22;5073812;28;20063;-50
2022/01/14 03:11:30;;;;;;;43.60;18.08;;;;;;;-0.83;100.00;102500.53;5073734;28;20057;-50
2022/01/14 03:14:00;;;;;;;49.58;17.25;;;;;;;-0.76;100.00;102502.41;5074665;28;20067;-51
2022/01/14 03:16:28;;;;;;;38.47;18.58;;;;;;;-0.76;100.00;102501.50;5074010;28;20377;-51
2022/01/14 03:19:06;;;;;;;49.67;18.55;;;;;;;-0.71;100.00;102499.84;5075749;28;20056;-50
2022/01/14 03:21:41;;;;;;;41.85;17.25;;;;;;;-0.73;100.00;102500.69;5077591;28;20059;-51
2022/01/14 03:24:19;;;;;;;43.55;17.73;;;;;;;-0.76;100.00;102502.41;5077698;28;20420;-51
2022/01/14 03:26:48;;;;;;;41.47;17.30;;;;;;;-0.73;100.00;102500.69;5076650;28;20056;-50
2022/01/14 03:29:17;;;;;;;46.47;18.60;;;;;;;-0.86;100.00;102503.06;5077987;28;20060;-51
2022/01/14 03:31:46;;;;;;;41.42;18.08;;;;;;;-0.88;100.00;102515.19;5076805;28;20064;-50
2022/01/14 03:34:14;;;;;;;35.05;17.77;;;;;;;-0.88;100.00;102507.38;5077938;28;20053;-51
2022/01/14 03:36:43;;;;;;;30.85;15.00;;;;;;;-0.89;100.00;102504.75;5076708;28;20059;-50
2022/01/14 03:39:17;;;;;;;40.03;15.80;;;;;;;-1.00;100.00;102500.22;5077773;28;20138;-51
2022/01/14 03:41:45;;;;;;;39.78;16.45;;;;;;;-1.07;100.00;102492.31;5076879;28;20127;-50
2022/01/14 03:44:14;;;;;;;33.60;16.00;;;;;;;-1.12;100.00;102493.06;5077466;28;20091;-51
2022/01/14 03:46:42;;;;;;;34.97;15.73;;;;;;;-1.13;100.00;102486.13;5076817;28;20067;-49
2022/01/14 03:49:11;;;;;;;46.03;16.50;;;;;;;-1.16;100.00;102475.66;5076474;28;20078;-51
2022/01/14 03:51:39;;;;;;;35.50;16.23;;;;;;;-1.18;100.00;102468.66;5076750;28;20117;-51
2022/01/14 03:54:07;;;;;;;36.13;17.85;;;;;;;-1.17;100.00;102466.06;5077341;28;20412;-50
2022/01/14 03:56:37;;;;;;;44.25;18.27;;;;;;;-1.02;100.00;102456.78;5076671;28;20056;-50
2022/01/14 03:59:05;;;;;;;46.92;19.15;;;;;;;-1.04;100.00;102463.66;5076571;28;20056;-50
2022/01/14 04:01:33;;;;;;;45.63;19.45;;;;;;;-1.07;100.00;102453.22;5076269;28;20059;-51
2022/01/14 04:04:02;;;;;;;45.50;18.10;;;;;;;-1.07;100.00;102458.44;5077110;28;20060;-50
2022/01/14 04:06:30;;;;;;;32.80;17.55;;;;;;;-1.13;100.00;102454.88;5076462;28;20056;-50
2022/01/14 04:08:59;;;;;;;41.97;16.58;;;;;;;-1.16;100.00;102460.03;5075553;28;20063;-51
2022/01/14 04:11:29;;;;;;;38.83;16.65;;;;;;;-1.26;100.00;102465.03;5076078;28;20140;-50
2022/01/14 04:14:08;;;;;;;42.95;16.48;;;;;;;-1.34;100.00;102467.50;5075774;28;20056;-50
2022/01/14 04:16:37;;;;;;;28.95;14.80;;;;;;;-1.44;100.00;102458.63;5075547;28;20420;-49
2022/01/14 04:19:06;;;;;;;35.03;15.90;;;;;;;-1.50;100.00;102462.03;5075569;28;20143;-48
2022/01/14 04:21:34;;;;;;;28.08;14.82;;;;;;;-1.57;100.00;102454.91;5075165;28;20095;-51
2022/01/14 04:24:02;;;;;;;29.70;14.90;;;;;;;-1.56;100.00;102464.50;5076725;28;20062;-50
2022/01/14 04:26:30;;;;;;;35.65;14.57;;;;;;;-1.55;100.00;102465.38;5076025;28;20052;-50
2022/01/14 04:29:00;;;;;;;43.95;17.75;;;;;;;-1.56;100.00;102459.28;5075662;28;20056;-50
2022/01/14 04:31:28;;;;;;;32.70;15.90;;;;;;;-1.56;100.00;102458.41;5075915;28;20064;-51
2022/01/14 04:33:56;;;;;;;29.73;14.75;;;;;;;-1.55;100.00;102455.81;5076544;28;20146;-51
2022/01/14 04:36:24;;;;;;;32.33;16.52;;;;;;;-1.55;100.00;102449.75;5075847;28;20057;-51
2022/01/14 04:38:53;;;;;;;31.35;16.25;;;;;;;-1.53;100.00;102451.53;5075359;28;20520;-51
2022/01/14 04:41:21;;;;;;;42.83;17.92;;;;;;;-1.52;100.00;102461.09;5075786;28;20071;-50
2022/01/14 04:43:49;;;;;;;42.45;18.15;;;;;;;-1.50;100.00;102448.09;5075724;28;20053;-51
2022/01/14 04:46:48;;;;;;;39.72;18.63;;;;;;;-1.47;100.00;102447.31;5075342;28;20060;-50
2022/01/14 04:49:16;;;;;;;35.45;16.08;;;;;;;-1.49;100.00;102444.66;5075819;28;20060;-51
2022/01/14 04:51:44;;;;;;;41.25;16.80;;;;;;;-1.49;100.00;102434.25;5075232;28;20058;-50
2022/01/14 04:54:12;;;;;;;40.83;17.65;;;;;;;-1.50;100.00;102438.59;5074931;28;20542;-50
2022/01/14 04:56:41;;;;;;;45.38;19.50;;;;;;;-1.53;100.00;102438.53;5075450;28;20059;-51
2022/01/14 04:59:09;;;;;;;41.95;18.23;;;;;;;-1.56;100.00;102422.84;5075020;28;20056;-51
2022/01/14 05:01:38;;;;;;;39.30;16.98;;;;;;;-1.59;100.00;102433.19;5076086;28;20405;-51
2022/01/14 05:04:07;;;;;;;39.70;17.73;;;;;;;-1.63;100.00;102430.50;5075580;28;20066;-51
2022/01/14 05:06:43;;;;;;;36.30;16.30;;;;;;;-1.66;100.00;102420.94;5076168;28;20451;-51
2022/01/14 05:09:21;;;;;;;29.30;12.63;;;;;;;-1.70;100.00;102420.00;5074695;28;20058;-51
2022/01/14 05:11:54;;;;;;;34.95;15.93;;;;;;;-1.76;100.00;102419.00;5075474;28;20052;-51
2022/01/14 05:14:22;;;;;;;40.08;17.00;;;;;;;-1.82;100.00;102416.25;5075216;28;20056;-51
2022/01/14 05:16:51;;;;;;;41.92;17.73;;;;;;;-1.87;100.00;102410.97;5075357;28;20074;-51
2022/01/14 05:19:20;;;;;;;40.20;17.23;;;;;;;-1.92;100.00;102413.47;5074971;28;20496;-51
2022/01/14 05:21:48;;;;;;;41.97;18.67;;;;;;;-1.93;100.00;102416.94;5075064;28;20056;-51
2022/01/14 05:24:16;;;;;;;49.08;20.45;;;;;;;-1.79;100.00;102429.34;5075024;28;20063;-50
2022/01/14 05:26:44;;;;;;;54.58;20.27;;;;;;;-1.81;100.00;102418.03;5074914;28;20056;-51
2022/01/14 05:29:12;;;;;;;53.47;21.98;;;;;;;-1.76;100.00;102427.66;5074835;28;20586;-51
2022/01/14 05:31:42;;;;;;;49.42;19.83;;;;;;;-1.75;100.00;102424.22;5074872;28;20411;-51
2022/01/14 05:34:12;;;;;;;64.00;23.15;;;;;;;-1.71;100.00;102430.38;5075167;28;20060;-51
2022/01/14 05:36:40;;;;;;;61.45;23.38;;;;;;;-1.63;100.00;102433.09;5074434;28;20053;-51
2022/01/14 05:39:09;;;;;;;61.17;23.70;;;;;;;-1.63;100.00;102434.00;5074664;28;20052;-51
2022/01/14 05:41:37;;;;;;;71.50;23.50;;;;;;;-1.47;100.00;102442.09;5074222;28;20063;-51
2022/01/14 05:44:06;;;;;;;68.47;26.52;;;;;;;-1.43;100.00;102433.47;5074115;28;20052;-51
2022/01/14 05:46:35;;;;;;;78.80;25.85;;;;;;;-1.51;100.00;102431.63;5074597;28;20072;-51
2022/01/14 05:49:03;;;;;;;80.55;27.13;;;;;;;-1.59;100.00;102432.31;5074326;28;20057;-51
2022/01/14 05:51:33;;;;;;;84.50;28.55;;;;;;;-1.54;100.00;102426.34;5074633;28;20056;-51
2022/01/14 05:54:01;;;;;;;95.07;30.88;;;;;;;-1.44;100.00;102423.94;5074870;28;20127;-50
2022/01/14 05:56:29;;;;;;;90.90;29.40;;;;;;;-1.44;100.00;102413.53;5074144;28;20052;-51
2022/01/14 05:58:58;;;;;;;97.18;31.42;;;;;;;-1.38;100.00;102411.00;5074052;28;20060;-51
2022/01/14 06:01:26;;;;;;;98.05;30.40;;;;;;;-1.43;100.00;102412.66;5074652;28;20056;-50
2022/01/14 06:03:54;;;;;;;103.75;30.98;;;;;;;-1.46;100.00;102412.59;5073854;28;20052;-51
2022/01/14 06:06:22;;;;;;;103.50;31.73;;;;;;;-1.45;100.00;102409.16;5074051;28;20056;-51
2022/01/14 06:08:52;;;;;;;117.95;34.53;;;;;;;-1.32;100.00;102417.19;5075162;28;20489;-51
2022/01/14 06:11:20;;;;;;;109.70;33.67;;;;;;;-1.37;100.00;102416.25;5074621;28;20056;-50
2022/01/14 06:13:49;;;;;;;107.55;32.65;;;;;;;-1.22;100.00;102418.25;5074900;28;20052;-50
2022/01/14 06:16:17;;;;;;;112.32;34.20;;;;;;;-1.13;100.00;102420.13;5073942;28;20052;-51
2022/01/14 06:18:46;;;;;;;116.03;37.42;;;;;;;-1.10;100.00;102421.91;5073817;28;20107;-51
2022/01/14 06:21:14;;;;;;;141.73;37.97;;;;;;;-1.09;100.00;102419.34;5074207;28;20056;-51
2022/01/14 06:23:42;;;;;;;132.65;38.13;;;;;;;-1.17;100.00;102419.19;5075082;28;20055;-51
2022/01/14 06:26:27;;;;;;;127.22;37.90;;;;;;;-1.17;100.00;102424.41;5073542;28;20554;-50
2022/01/14 06:28:55;;;;;;;143.73;37.70;;;;;;;-1.21;100.00;102424.31;5073820;28;20072;-51
2022/01/14 06:31:24;;;;;;;130.50;36.97;;;;;;;-1.27;100.00;102414.69;5073823;28;20056;-51
2022/01/14 06:33:52;;;;;;;121.65;37.65;;;;;;;-1.23;100.00;102418.22;5074760;28;20049;-51
2022/01/14 06:36:20;;;;;;;122.90;36.40;;;;;;;-1.31;100.00;102424.16;5073944;28;20057;-51
2022/01/14 06:38:49;;;;;;;127.10;37.38;;;;;;;-1.29;100.00;102416.38;5074114;28;20083;-51
2022/01/14 06:41:17;;;;;;;131.70;37.60;;;;;;;-1.28;100.00;102423.34;5073652;28;20053;-51
2022/01/14 06:43:47;;;;;;;137.50;39.08;;;;;;;-1.27;100.00;102425.09;5073403;28;20056;-51
2022/01/14 06:46:15;;;;;;;138.65;39.03;;;;;;;-1.31;100.00;102436.31;5073959;28;20160;-51
2022/01/14 06:48:43;;;;;;;141.10;36.40;;;;;;;-1.36;100.00;102436.22;5073988;28;20056;-51
2022/01/14 06:51:15;;;;;;;150.43;39.92;;;;;;;-1.31;100.00;102436.31;5073627;28;20515;-51
2022/01/14 06:53:46;;;;;;;131.98;36.70;;;;;;;-1.44;100.00;102421.34;5076019;28;20443;-51
2022/01/14 06:56:14;;;;;;;130.55;37.80;;;;;;;-1.39;100.00;102435.31;5077397;28;20488;-51
2022/01/14 06:58:43;;;;;;;122.05;37.22;;;;;;;-1.41;100.00;102421.34;5077449;28;20048;-51
2022/01/14 07:01:13;;;;;;;130.85;35.20;;;;;;;-1.45;100.00;102435.19;5077602;28;20056;-51
2022/01/14 07:03:41;;;;;;;130.95;36.58;;;;;;;-1.48;100.00;102424.72;5076987;28;20053;-51
2022/01/14 07:06:10;;;;;;;139.95;37.10;;;;;;;-1.54;100.00;102426.34;5077254;28;20052;-51
2022/01/14 07:08:38;;;;;;;140.77;35.17;;;;;;;-1.59;100.00;102428.00;5077133;28;20063;-51
2022/01/14 07:11:07;;;;;;;133.82;35.58;;;;;;;-1.61;100.00;102437.50;5077283;28;20415;-51
2022/01/14 07:13:35;;;;;;;144.27;39.25;;;;;;;-1.51;100.00;102428.16;5077444;28;20053;-51
2022/01/14 07:16:04;;;;;;;152.25;39.15;;;;;;;-1.47;100.00;102436.88;5077112;28;20052;-51
2022/01/14 07:18:34;;;;;;;151.85;37.55;;;;;;;-1.45;100.00;102436.06;5077319;28;20404;-51
2022/01/14 07:21:02;;;;;;;154.02;37.63;;;;;;;-1.45;100.00;102437.78;5077928;28;20059;-50
2022/01/14 07:23:31;;;;;;;146.57;37.75;;;;;;;-1.53;100.00;102432.41;5076858;28;20056;-50
2022/01/14 07:25:59;;;;;;;136.52;38.85;;;;;;;-1.51;100.00;102433.34;5077207;28;20056;-51
2022/01/14 07:28:27;;;;;;;151.32;39.15;;;;;;;-1.51;100.00;102429.00;5077152;28;20053;-50
2022/01/14 07:30:55;;;;;;;136.35;39.28;;;;;;;-1.58;100.00;102429.75;5076820;28;20060;-51
2022/01/14 07:33:23;;;;;;;154.60;41.35;;;;;;;-1.56;100.00;102422.84;5076709;28;20519;-51
2022/01/14 07:35:53;;;;;;;141.82;39.58;;;;;;;-1.58;100.00;102421.06;5076792;28;20072;-51
2022/01/14 07:38:22;;;;;;;139.50;38.47;;;;;;;-1.71;100.00;102413.03;5076675;28;20057;-49
2022/01/14 07:40:50;;;;;;;139.70;38.25;;;;;;;-1.78;100.00;102420.66;5076497;28;20067;-49
2022/01/14 07:43:20;;;;;;;132.05;38.38;;;;;;;-1.67;100.00;102424.38;5076926;28;20056;-51
2022/01/14 07:45:49;;;;;;;143.80;36.88;;;;;;;-1.72;100.00;102431.19;5077614;28;20106;-51
2022/01/14 07:48:17;;;;;;;142.43;37.33;;;;;;;-1.71;100.00;102430.38;5076724;28;20531;-51
2022/01/14 07:50:45;;;;;;;141.23;37.42;;;;;;;-1.77;100.00;102422.44;5076679;28;20086;-51
2022/01/14 07:53:15;;;;;;;117.20;35.85;;;;;;;-1.78;100.00;102420.66;5076410;28;20059;-51
2022/01/14 07:55:43;;;;;;;133.55;37.17;;;;;;;-1.81;100.00;102421.50;5077463;28;20052;-50
2022/01/14 07:58:12;;;;;;;118.53;34.88;;;;;;;-1.89;100.00;102423.06;5076282;28;20056;-51
2022/01/14 08:00:41;;;;;;;129.15;37.33;;;;;;;-1.81;100.00;102420.63;5076423;28;20052;-51
2022/01/14 08:03:09;;;;;;;137.00;36.92;;;;;;;-1.80;100.00;102424.97;5076705;28;20053;-51
2022/01/14 08:05:38;;;;;;;121.78;34.67;;;;;;;-1.73;100.00;102426.84;5076557;28;20057;-51
2022/01/14 08:08:07;;;;;;;147.90;37.60;;;;;;;-1.75;100.00;102420.72;5076553;28;20539;-51
2022/01/14 08:10:38;;;;;;;133.32;36.05;;;;;;;-1.66;100.00;102420.94;5076481;28;20060;-48
2022/01/14 08:13:06;;;;;;;134.77;37.13;;;;;;;-1.67;100.00;102424.38;5076700;28;20060;-51
2022/01/14 08:15:35;;;;;;;152.27;40.92;;;;;;;-1.56;100.00;102428.06;5076655;28;20063;-51
2022/01/14 08:18:06;;;;;;;134.43;35.83;;;;;;;-1.64;100.00;102419.22;5077028;28;20083;-51
2022/01/14 08:20:34;;;;;;;126.63;34.63;;;;;;;-1.65;100.00;102424.41;5077053;28;20061;-51
2022/01/14 08:23:02;;;;;;;134.02;36.83;;;;;;;-1.64;100.00;102429.63;5076033;28;20298;-51
2022/01/14 08:25:37;;;;;;;134.75;37.42;;;;;;;-1.63;100.00;102431.41;5076373;28;20084;-51
2022/01/14 08:28:05;;;;;;;149.63;39.38;;;;;;;-1.53;100.00;102435.94;5075741;28;20060;-51
2022/01/14 08:30:33;;;;;;;138.05;37.08;;;;;;;-1.46;100.00;102423.91;5075632;28;20056;-49
2022/01/14 08:33:02;;;;;;;136.25;38.92;;;;;;;-1.42;100.00;102425.69;5075389;28;20060;-51
2022/01/14 08:35:30;;;;;;;158.88;38.65;;;;;;;-1.46;100.00;102429.09;5076173;28;20058;-51
2022/01/14 08:37:58;;;;;;;130.50;37.83;;;;;;;-1.35;100.00;102431.91;5075521;28;20052;-51
2022/01/14 08:40:27;;;;;;;143.13;39.28;;;;;;;-1.35;100.00;102431.91;5075422;28;20065;-51
2022/01/14 08:42:56;;;;;;;145.18;37.40;;;;;;;-1.26;100.00;102442.50;5075732;28;20056;-51
2022/01/14 08:45:25;;;;;;;148.07;38.17;;;;;;;-1.18;100.00;102447.81;5076032;28;20052;-51
2022/01/14 08:47:55;;;;;;;151.45;38.63;;;;;;;-1.15;100.00;102443.53;5075582;28;20390;-51
2022/01/14 08:50:24;;;;;;;130.38;38.45;;;;;;;-1.13;100.00;102444.47;5075568;28;20061;-50
2022/01/14 08:52:53;;;;;;;147.65;40.38;;;;;;;-1.10;100.00;102447.97;5076065;28;20053;-51
2022/01/14 08:55:22;;;;;;;131.80;39.80;;;;;;;-1.08;100.00;102446.25;5076249;28;20063;-51
2022/01/14 08:57:50;;;;;;;143.40;40.13;;;;;;;-1.05;100.00;102451.53;5075094;28;20052;-51
2022/01/14 09:00:22;;;;;;;131.38;38.20;;;;;;;-1.05;100.00;102451.53;5074960;28;20060;-51
2022/01/14 09:02:50;;;;;;;140.40;38.42;;;;;;;-1.02;100.00;102451.56;5075924;28;20090;-50
2022/01/14 09:05:20;;;;;;;138.38;38.95;;;;;;;-0.93;100.00;102451.72;5074758;28;20052;-51
2022/01/14 09:07:50;;;;;;;135.48;38.38;;;;;;;-0.87;100.00;102451.81;5075260;28;20060;-50
2022/01/14 09:10:20;;;;;;;113.37;30.40;;;;;;;-0.81;100.00;102435.41;5075124;28;20056;-51
2022/01/14 09:12:48;;;;;;;139.00;39.53;;;;;;;-0.84;100.00;102441.47;5075150;28;20507;-51
2022/01/14 09:15:17;;;;;;;132.48;39.00;;;;;;;-0.76;100.00;102433.75;5074810;28;20052;-51
2022/01/14 09:17:46;;;;;;;140.48;38.72;;;;;;;-0.64;100.00;102438.25;5074530;28;20056;-51
2022/01/14 09:20:15;;;;;;;137.20;38.08;;;;;;;-0.59;100.00;102437.50;5074599;28;20064;-50
2022/01/14 09:22:48;;;;;;;130.00;37.15;;;;;;;-0.35;100.00;102440.41;5074557;28;20060;-52
2022/01/14 09:25:17;;;;;;;133.20;41.95;;;;;;;-0.06;100.00;102439.09;5075441;28;20053;-51
2022/01/14 09:27:47;;;;;;;140.30;42.20;;;;;;;-0.02;100.00;102440.00;5074573;28;20055;-51
2022/01/14 09:30:15;;;;;;;122.15;39.40;;;;;;;-0.19;100.00;102432.81;5074836;28;20060;-51
2022/01/14 09:32:44;;;;;;;121.07;39.33;;;;;;;0.13;100.00;102436.69;5074796;28;20052;-51
2022/01/14 09:35:14;;;;;;;124.60;39.40;;;;;;;0.38;100.00;102442.22;5075362;28;20059;-51
2022/01/14 09:37:44;;;;;;;129.57;40.70;;;;;;;0.90;100.00;102440.97;5074168;28;20060;-51
2022/01/14 09:40:14;;;;;;;132.80;43.17;;;;;;;1.64;100.00;102430.19;5075111;28;20064;-51
2022/01/14 09:42:47;;;;;;;117.70;41.20;;;;;;;2.77;100.00;102428.81;5074915;28;20404;-51
2022/01/14 09:45:15;;;;;;;103.80;41.85;;;;;;;3.38;100.00;102416.56;5074087;28;20063;-52
2022/01/14 09:47:49;;;;;;;85.15;38.75;;;;;;;5.65;100.00;102429.16;5074753;28;20155;-52
2022/01/14 09:50:20;;;;;;;65.35;34.33;;;;;;;6.97;100.00;102427.38;5074062;28;20052;-52
2022/01/14 09:52:51;;;;;;;48.47;25.88;;;;;;;7.78;100.00;102419.78;5073962;28;20052;-49
2022/01/14 09:55:20;;;;;;;43.22;22.00;;;;;;;8.37;100.00;102413.22;5075379;28;20420;-52
2022/01/14 09:57:49;;;;;;;41.60;21.83;;;;;;;9.23;100.00;102408.53;5075245;28;20061;-52
2022/01/14 10:00:17;;;;;;;40.10;20.67;;;;;;;9.47;100.00;102419.38;5074181;28;20066;-52
2022/01/14 10:02:46;;;;;;;31.50;19.17;;;;;;;9.91;92.99;102422.56;5074336;28;20063;-50
2022/01/14 10:05:34;;;;;;;30.85;18.70;;;;;;;10.15;92.77;102425.41;5074620;28;20064;-49
2022/01/14 10:08:11;;;;;;;32.65;18.95;;;;;;;9.77;73.19;102427.41;5074974;28;20053;-51
2022/01/14 10:10:45;;;;;;;36.08;18.63;;;;;;;9.63;76.79;102426.00;5073748;28;20079;-51
2022/01/14 10:13:16;;;;;;;30.70;18.35;;;;;;;10.73;68.56;102428.94;5073800;28;20059;-51
2022/01/14 10:15:47;;;;;;;31.20;18.40;;;;;;;12.20;55.84;102435.31;5075186;28;20053;-52
2022/01/14 10:18:17;;;;;;;32.97;19.80;;;;;;;11.47;53.42;102433.56;5073686;28;20059;-52
2022/01/14 10:20:47;;;;;;;30.45;19.10;;;;;;;12.76;51.16;102431.38;5073614;28;20063;-52
2022/01/14 10:23:16;;;;;;;33.00;17.55;;;;;;;13.50;50.57;102430.06;5074260;28;20049;-50
2022/01/14 10:25:56;;;;;;;32.90;18.45;;;;;;;12.19;47.19;102430.09;5075112;28;20052;-51
2022/01/14 10:28:24;;;;;;;30.90;16.95;;;;;;;11.44;48.43;102442.50;5077757;28;20064;-51
2022/01/14 10:30:52;;;;;;;30.02;16.30;;;;;;;12.11;48.49;102437.50;5077980;28;20066;-52
2022/01/14 10:33:30;;;;;;;28.23;16.55;;;;;;;14.15;43.04;102429.81;5078210;28;20053;-53
2022/01/14 10:35:59;;;;;;;27.92;16.75;;;;;;;14.79;42.86;102425.88;5079080;28;20408;-53
2022/01/14 10:38:38;;;;;;;22.90;14.32;;;;;;;14.83;40.61;102420.31;5077826;28;20056;-50
2022/01/14 10:41:08;;;;;;;22.83;14.88;;;;;;;14.81;40.24;102413.31;5078273;28;20061;-53
2022/01/14 10:43:40;;;;;;;29.58;15.65;;;;;;;16.13;40.20;102418.94;5078642;28;20053;-52
2022/01/14 10:46:10;;;;;;;23.55;14.73;;;;;;;16.13;40.20;102418.94;5078033;28;20057;-51
2022/01/14 10:48:40;;;;;;;23.02;13.80;;;;;;;16.39;37.20;102411.22;5077633;28;20052;-50
2022/01/14 10:51:12;;;;;;;22.80;14.30;;;;;;;18.18;35.55;102418.38;5077649;28;20057;-50
2022/01/14 10:53:42;;;;;;;29.13;14.95;;;;;;;18.18;35.55;102418.38;5078496;28;20060;-53
2022/01/14 10:56:11;;;;;;;22.27;14.23;;;;;;;16.35;37.12;102418.59;5078086;28;20048;-52
2022/01/14 10:58:41;;;;;;;25.65;12.95;;;;;;;18.00;33.65;102414.19;5077736;28;20059;-52
2022/01/14 11:01:13;;;;;;;24.90;14.18;;;;;;;15.34;37.13;102414.19;5077361;28;20064;-50
2022/01/14 11:03:44;;;;;;;23.38;14.13;;;;;;;15.45;36.85;102403.81;5078003;28;20522;-50
2022/01/14 11:06:22;;;;;;;22.75;13.55;;;;;;;15.32;37.52;102402.72;5077339;28;20071;-51
2022/01/14 11:08:55;;;;;;;23.75;14.10;;;;;;;14.17;40.61;102395.91;5078469;28;20103;-50
2022/01/14 11:11:24;;;;;;;24.02;14.98;;;;;;;14.50;39.17;102393.44;5078050;28;20075;-50
2022/01/14 11:13:52;;;;;;;22.33;13.25;;;;;;;15.78;37.83;102378.91;5078327;28;20451;-51
2022/01/14 11:16:20;;;;;;;22.60;14.38;;;;;;;15.48;37.54;102382.25;5077620;28;20412;-51
2022/01/14 11:18:49;;;;;;;26.77;14.80;;;;;;;14.98;37.84;102377.75;5077225;28;20079;-51
2022/01/14 11:24:05;;;;;;;24.02;14.98;;;;;;;15.35;36.50;102381.19;5077240;28;20068;-51
2022/01/14 11:26:36;;;;;;;22.30;14.65;;;;;;;16.89;34.94;102378.00;5077707;28;20059;-51
2022/01/14 11:29:08;;;;;;;25.23;15.43;;;;;;;17.14;34.06;102373.88;5076943;28;20057;-51
2022/01/14 11:31:38;;;;;;;24.27;14.40;;;;;;;18.54;32.53;102382.03;5076613;28;20057;-51
2022/01/14 11:34:07;;;;;;;27.17;15.95;;;;;;;17.81;32.61;102360.78;5076561;28;20508;-51